Time;durP1;ratioP1;P1;durP2;ratioP2;P2;SDS_P1;SDS_P2;PMS_P1;PMS_P2;Temp;Humidity;BMP_temperature;BMP_pressure;BME280_temperature;BME280_humidity;BME280_pressure;Samples;Min_cycle;Max_cycle;Signal;HPM_P1;HPM_P2
2024/01/21 00:02:14;;;;;;;17.25;11.20;;;0.40;99.90;;;;;;6113163;23;20105;-69
2024/01/21 00:04:40;;;;;;;18.77;11.15;;;0.50;99.90;;;;;;6113040;23;20025;-69
2024/01/21 00:07:07;;;;;;;16.27;11.30;;;0.50;99.90;;;;;;6111799;23;20029;-69
2024/01/21 00:09:33;;;;;;;16.88;11.35;;;0.60;99.90;;;;;;6112617;23;20018;-69
2024/01/21 00:11:58;;;;;;;18.00;11.02;;;0.50;99.90;;;;;;6111858;23;20863;-69
2024/01/21 00:14:24;;;;;;;16.92;11.60;;;0.60;99.90;;;;;;6112520;23;20026;-69
2024/01/21 00:16:50;;;;;;;16.88;11.15;;;0.60;99.90;;;;;;6113917;23;20467;-69
2024/01/21 00:19:16;;;;;;;15.95;10.68;;;0.50;99.90;;;;;;6111333;23;20049;-69
2024/01/21 00:21:41;;;;;;;18.40;10.80;;;0.50;99.90;;;;;;6112200;23;20076;-69
2024/01/21 00:24:07;;;;;;;18.48;11.27;;;0.40;99.90;;;;;;6112096;23;20030;-69
2024/01/21 00:26:33;;;;;;;15.82;10.27;;;0.40;99.90;;;;;;6113875;23;20022;-69
2024/01/21 00:29:00;;;;;;;17.08;10.85;;;0.40;99.90;;;;;;6114237;23;20018;-69
2024/01/21 00:31:27;;;;;;;19.75;11.38;;;0.40;99.90;;;;;;6114211;23;20088;-69
2024/01/21 00:33:53;;;;;;;16.05;10.55;;;0.40;99.90;;;;;;6113116;23;20103;-69
2024/01/21 00:36:19;;;;;;;17.40;11.40;;;0.40;99.90;;;;;;6086575;23;20022;-69
2024/01/21 00:38:44;;;;;;;17.02;11.05;;;0.40;99.90;;;;;;6112474;23;20112;-68
2024/01/21 00:41:16;;;;;;;18.23;11.60;;;0.30;99.90;;;;;;6110782;23;20492;-68
2024/01/21 00:43:42;;;;;;;16.70;11.32;;;0.30;99.90;;;;;;6088082;23;20022;-69
2024/01/21 00:46:08;;;;;;;18.85;11.88;;;0.30;99.90;;;;;;6111769;23;20077;-69
2024/01/21 00:48:34;;;;;;;18.42;12.20;;;0.30;99.90;;;;;;6114165;23;20514;-69
2024/01/21 00:51:03;;;;;;;16.58;11.70;;;0.30;99.90;;;;;;6110625;23;20044;-69
2024/01/21 00:53:28;;;;;;;18.75;12.38;;;0.20;99.90;;;;;;6113880;23;20018;-68
2024/01/21 00:55:54;;;;;;;16.42;11.45;;;0.20;99.90;;;;;;6112117;23;20022;-68
2024/01/21 00:58:20;;;;;;;18.23;11.95;;;0.10;99.90;;;;;;6111922;23;20022;-69
2024/01/21 01:00:45;;;;;;;17.63;11.20;;;0.10;99.90;;;;;;6112291;23;20407;-68
2024/01/21 01:03:11;;;;;;;19.65;11.70;;;0.10;99.90;;;;;;6113983;23;20427;-68
2024/01/21 01:05:36;;;;;;;16.80;10.98;;;0.10;99.90;;;;;;6110212;23;20025;-68
2024/01/21 01:08:02;;;;;;;15.57;10.40;;;0.10;99.90;;;;;;6113523;23;20033;-68
2024/01/21 01:10:28;;;;;;;16.73;10.52;;;0.20;99.90;;;;;;6111226;23;20025;-69
2024/01/21 01:12:54;;;;;;;19.45;11.45;;;0.20;99.90;;;;;;6114151;23;20064;-68
2024/01/21 01:15:20;;;;;;;16.90;10.60;;;0.10;99.90;;;;;;6111106;23;20034;-68
2024/01/21 01:17:47;;;;;;;18.55;11.43;;;0.20;99.90;;;;;;6112889;23;20025;-68
2024/01/21 01:20:13;;;;;;;16.05;10.18;;;0.20;99.90;;;;;;6113281;23;20022;-68
2024/01/21 01:22:38;;;;;;;15.77;9.80;;;0.20;99.90;;;;;;6111796;23;20033;-68
2024/01/21 01:25:04;;;;;;;13.30;9.45;;;0.20;99.90;;;;;;6113009;23;20026;-68
2024/01/21 01:27:30;;;;;;;15.00;9.35;;;0.20;99.90;;;;;;6113530;23;20022;-68
2024/01/21 01:29:56;;;;;;;16.20;10.02;;;0.30;99.90;;;;;;6113010;23;20013;-68
2024/01/21 01:32:21;;;;;;;17.77;9.80;;;0.30;99.90;;;;;;6112114;23;20025;-68
2024/01/21 01:34:49;;;;;;;16.23;9.32;;;0.30;99.90;;;;;;6085532;23;20026;-68
2024/01/21 01:37:15;;;;;;;14.00;9.10;;;0.30;99.90;;;;;;6111754;23;20091;-68
2024/01/21 01:39:40;;;;;;;13.73;9.05;;;0.30;99.90;;;;;;6114905;23;20049;-69
2024/01/21 01:42:06;;;;;;;13.00;8.75;;;0.40;99.90;;;;;;6115121;23;20018;-70
2024/01/21 01:44:32;;;;;;;13.07;8.90;;;0.40;99.90;;;;;;6115727;23;20029;-70
2024/01/21 01:46:58;;;;;;;13.52;8.60;;;0.40;99.90;;;;;;6114814;23;20022;-70
2024/01/21 01:49:23;;;;;;;14.95;8.65;;;0.40;99.90;;;;;;6115403;23;20041;-69
2024/01/21 01:51:49;;;;;;;12.15;7.85;;;0.50;99.90;;;;;;6109868;23;20366;-70
2024/01/21 01:54:17;;;;;;;14.68;8.30;;;0.50;99.90;;;;;;6112715;23;20459;-70
2024/01/21 01:56:43;;;;;;;13.20;7.45;;;0.50;99.90;;;;;;6112148;23;20101;-70
2024/01/21 01:59:10;;;;;;;13.50;7.93;;;0.60;99.90;;;;;;6112424;23;20026;-70
2024/01/21 02:01:39;;;;;;;10.88;6.68;;;0.60;99.90;;;;;;6113299;23;20056;-69
2024/01/21 02:04:07;;;;;;;11.88;6.72;;;0.60;99.90;;;;;;6112300;23;20033;-70
2024/01/21 02:06:33;;;;;;;14.98;7.13;;;0.70;99.90;;;;;;6112452;23;20028;-70
2024/01/21 02:08:59;;;;;;;11.13;7.03;;;0.70;99.90;;;;;;6110839;23;20022;-71
2024/01/21 02:11:24;;;;;;;12.23;6.65;;;0.80;99.90;;;;;;6111189;23;20093;-69
2024/01/21 02:13:50;;;;;;;11.32;6.53;;;0.80;99.90;;;;;;6115145;23;20030;-70
2024/01/21 02:16:16;;;;;;;11.25;6.60;;;0.80;99.90;;;;;;6116863;23;20455;-70
2024/01/21 02:18:45;;;;;;;8.80;5.50;;;0.80;99.90;;;;;;6090786;23;20033;-71
2024/01/21 02:21:10;;;;;;;8.43;5.82;;;0.90;99.90;;;;;;6114935;23;20026;-71
2024/01/21 02:23:36;;;;;;;8.88;5.22;;;1.00;99.90;;;;;;6115861;23;20029;-70
2024/01/21 02:26:02;;;;;;;10.50;5.72;;;1.00;99.90;;;;;;6115411;23;20240;-71
2024/01/21 02:28:27;;;;;;;9.52;5.43;;;1.00;99.90;;;;;;6115447;23;20355;-70
2024/01/21 02:30:53;;;;;;;10.57;5.78;;;1.00;99.90;;;;;;6115399;23;20045;-69
2024/01/21 02:33:18;;;;;;;8.73;5.55;;;1.00;99.90;;;;;;6117337;23;20568;-70
2024/01/21 02:35:44;;;;;;;7.75;5.45;;;1.00;99.90;;;;;;6117363;23;20022;-70
2024/01/21 02:38:10;;;;;;;9.80;5.07;;;1.00;99.90;;;;;;6116126;23;20044;-70
2024/01/21 02:40:37;;;;;;;8.60;5.55;;;1.00;99.90;;;;;;6115257;23;20088;-70
2024/01/21 02:43:04;;;;;;;9.95;5.30;;;1.00;99.90;;;;;;6114906;23;20029;-70
2024/01/21 02:45:30;;;;;;;9.15;5.70;;;1.00;99.90;;;;;;6116133;23;20018;-69
2024/01/21 02:47:56;;;;;;;8.60;5.05;;;1.00;99.90;;;;;;6115130;23;20022;-71
2024/01/21 02:50:21;;;;;;;10.20;5.47;;;1.10;99.90;;;;;;6115801;23;20677;-70
2024/01/21 02:52:47;;;;;;;7.65;5.25;;;1.10;99.90;;;;;;6116732;23;20028;-70
2024/01/21 02:55:12;;;;;;;8.00;4.72;;;1.10;99.90;;;;;;6114834;23;20053;-70
2024/01/21 02:57:38;;;;;;;7.68;4.55;;;1.10;99.90;;;;;;6116403;23;20053;-71
2024/01/21 03:00:04;;;;;;;8.30;4.90;;;1.10;99.90;;;;;;6116682;23;20050;-71
2024/01/21 03:02:31;;;;;;;8.32;4.55;;;1.20;99.90;;;;;;6116773;23;20028;-70
2024/01/21 03:04:56;;;;;;;6.55;4.00;;;1.20;99.90;;;;;;6116841;23;20018;-69
2024/01/21 03:07:22;;;;;;;7.03;4.30;;;1.30;99.90;;;;;;6116825;23;20330;-70
2024/01/21 03:09:48;;;;;;;6.43;4.50;;;1.30;99.90;;;;;;6114069;23;20014;-70
2024/01/21 03:12:13;;;;;;;7.05;4.18;;;1.20;99.90;;;;;;6114759;23;20082;-71
2024/01/21 03:14:39;;;;;;;7.10;3.92;;;1.20;99.90;;;;;;6114981;23;20526;-71
2024/01/21 03:17:05;;;;;;;8.50;4.35;;;1.20;99.90;;;;;;6116765;23;20025;-70
2024/01/21 03:19:31;;;;;;;7.60;4.38;;;1.20;99.90;;;;;;6114850;23;20033;-69
2024/01/21 03:21:56;;;;;;;7.72;4.20;;;1.20;99.90;;;;;;6116314;23;20081;-70
2024/01/21 03:24:22;;;;;;;6.38;4.10;;;1.10;99.90;;;;;;6114185;23;20370;-70
2024/01/21 03:26:47;;;;;;;7.43;4.35;;;1.10;99.90;;;;;;6114852;23;20026;-70
2024/01/21 03:29:13;;;;;;;7.60;5.03;;;1.10;99.90;;;;;;6115734;23;20017;-70
2024/01/21 03:31:39;;;;;;;7.20;4.18;;;1.10;99.90;;;;;;6116380;23;20051;-69
2024/01/21 03:34:04;;;;;;;5.95;3.83;;;1.10;99.90;;;;;;6114890;23;20026;-71
2024/01/21 03:36:30;;;;;;;6.43;3.75;;;1.10;99.90;;;;;;6114400;23;20531;-71
2024/01/21 03:38:56;;;;;;;6.43;3.58;;;1.20;99.90;;;;;;6116033;23;20434;-70
2024/01/21 03:41:21;;;;;;;7.13;3.63;;;1.20;99.90;;;;;;6116352;23;20022;-70
2024/01/21 03:43:47;;;;;;;9.68;3.80;;;1.20;99.90;;;;;;6113885;23;20459;-69
2024/01/21 03:46:13;;;;;;;4.28;3.15;;;1.20;99.90;;;;;;6116135;23;20022;-69
2024/01/21 03:48:38;;;;;;;6.82;3.55;;;1.20;99.90;;;;;;6089878;23;20069;-70
2024/01/21 03:51:05;;;;;;;3.75;2.75;;;1.20;99.90;;;;;;6113953;23;20017;-70
2024/01/21 03:53:30;;;;;;;6.28;3.08;;;1.30;99.90;;;;;;6114657;23;20037;-71
2024/01/21 03:55:56;;;;;;;4.30;2.80;;;1.30;99.90;;;;;;6116190;23;20442;-70
2024/01/21 03:58:21;;;;;;;5.13;3.35;;;1.20;99.90;;;;;;6113923;23;20086;-70
2024/01/21 04:00:47;;;;;;;3.67;2.97;;;1.20;99.90;;;;;;6115773;23;20171;-70
2024/01/21 04:03:13;;;;;;;5.18;2.75;;;1.20;99.90;;;;;;6115740;23;20022;-70
2024/01/21 04:05:38;;;;;;;5.50;3.10;;;1.20;99.90;;;;;;6114704;23;20640;-69
2024/01/21 04:08:05;;;;;;;5.30;2.63;;;1.20;99.90;;;;;;6114938;23;20010;-70
2024/01/21 04:10:31;;;;;;;5.10;2.75;;;1.20;99.90;;;;;;6114019;23;20846;-70
2024/01/21 04:12:57;;;;;;;6.28;3.15;;;1.30;99.90;;;;;;6114251;23;20057;-70
2024/01/21 04:15:22;;;;;;;3.45;2.40;;;1.30;99.90;;;;;;6114691;23;20033;-69
2024/01/21 04:17:48;;;;;;;4.38;2.85;;;1.30;99.90;;;;;;6114653;23;20025;-69
2024/01/21 04:20:13;;;;;;;6.82;2.80;;;1.40;99.90;;;;;;6114780;23;20018;-70
2024/01/21 04:22:39;;;;;;;7.20;2.47;;;1.40;99.90;;;;;;6116292;23;20343;-69
2024/01/21 04:25:05;;;;;;;5.47;2.42;;;1.40;99.90;;;;;;6113968;23;20064;-69
2024/01/21 04:27:30;;;;;;;4.80;2.45;;;1.40;99.90;;;;;;6113772;23;20477;-70
2024/01/21 04:29:56;;;;;;;4.28;2.40;;;1.40;99.90;;;;;;6113879;23;20068;-70
2024/01/21 04:32:21;;;;;;;3.30;2.47;;;1.40;99.90;;;;;;6114364;23;20148;-70
2024/01/21 04:34:47;;;;;;;4.35;2.53;;;1.50;99.90;;;;;;6113375;23;20363;-70
2024/01/21 04:37:13;;;;;;;3.92;2.60;;;1.50;99.90;;;;;;6113942;23;20093;-70
2024/01/21 04:39:38;;;;;;;4.25;2.70;;;1.50;99.90;;;;;;6114419;23;20021;-70
2024/01/21 04:42:04;;;;;;;5.60;3.03;;;1.40;99.90;;;;;;6115190;23;20064;-70
2024/01/21 04:44:30;;;;;;;4.00;2.42;;;1.40;99.90;;;;;;6114209;23;20057;-70
2024/01/21 04:46:56;;;;;;;5.10;2.70;;;1.40;99.90;;;;;;6113641;23;20462;-70
2024/01/21 04:49:22;;;;;;;3.75;2.45;;;1.30;99.90;;;;;;6115475;23;20022;-69
2024/01/21 04:51:47;;;;;;;3.63;2.40;;;1.30;99.90;;;;;;6113877;23;20018;-70
2024/01/21 04:54:13;;;;;;;4.78;2.42;;;1.30;99.90;;;;;;6113948;23;20332;-70
2024/01/21 04:56:39;;;;;;;5.68;2.78;;;1.30;99.90;;;;;;6116157;23;20396;-70
2024/01/21 04:59:05;;;;;;;4.30;2.95;;;1.30;99.90;;;;;;6113915;23;20021;-69
2024/01/21 05:01:32;;;;;;;4.40;2.60;;;1.30;99.90;;;;;;6113953;23;20029;-70
2024/01/21 05:03:58;;;;;;;4.32;2.70;;;1.30;99.90;;;;;;6115198;23;20033;-69
2024/01/21 05:06:23;;;;;;;4.90;2.97;;;1.30;99.90;;;;;;6115820;23;20010;-69
2024/01/21 05:08:49;;;;;;;4.10;2.72;;;1.30;99.90;;;;;;6113711;23;20021;-70
2024/01/21 05:11:15;;;;;;;4.30;2.80;;;1.30;99.90;;;;;;6113716;23;20021;-70
2024/01/21 05:13:41;;;;;;;6.43;2.80;;;1.20;99.90;;;;;;6115510;23;20101;-69
2024/01/21 05:16:07;;;;;;;4.55;3.20;;;1.20;99.90;;;;;;6113793;23;20026;-71
2024/01/21 05:18:32;;;;;;;5.32;2.58;;;1.30;99.90;;;;;;6113835;23;20493;-69
2024/01/21 05:20:58;;;;;;;6.13;3.25;;;1.20;99.90;;;;;;6113222;23;20124;-70
2024/01/21 05:23:24;;;;;;;5.00;3.15;;;1.20;99.90;;;;;;6113801;23;20129;-70
2024/01/21 05:25:52;;;;;;;4.03;2.80;;;1.20;99.90;;;;;;6115153;23;20022;-70
2024/01/21 05:28:18;;;;;;;6.45;3.38;;;1.20;99.90;;;;;;6114612;23;20343;-71
2024/01/21 05:30:44;;;;;;;4.22;3.05;;;1.20;99.90;;;;;;6114255;23;20018;-70
2024/01/21 05:33:09;;;;;;;5.75;3.30;;;1.20;99.90;;;;;;6116661;23;20033;-70
2024/01/21 05:35:35;;;;;;;6.03;3.10;;;1.30;99.90;;;;;;6115000;23;20018;-70
2024/01/21 05:38:00;;;;;;;5.53;3.38;;;1.30;99.90;;;;;;6116109;23;20053;-71
2024/01/21 05:40:26;;;;;;;6.10;3.90;;;1.40;99.90;;;;;;6116233;23;20022;-70
2024/01/21 05:42:52;;;;;;;8.65;3.55;;;1.50;99.90;;;;;;6115055;23;20899;-70
2024/01/21 05:45:18;;;;;;;5.47;3.13;;;1.60;99.90;;;;;;6114836;23;20029;-69
2024/01/21 05:47:44;;;;;;;4.82;2.95;;;1.80;99.90;;;;;;6118893;23;20022;-70
2024/01/21 05:50:10;;;;;;;5.15;3.55;;;1.80;99.90;;;;;;6116749;23;20022;-70
2024/01/21 05:52:36;;;;;;;4.93;3.50;;;1.90;99.90;;;;;;6117941;23;20024;-70
2024/01/21 05:55:06;;;;;;;5.20;3.50;;;1.80;99.90;;;;;;6116369;23;20025;-69
2024/01/21 05:57:31;;;;;;;6.55;3.67;;;2.00;99.90;;;;;;6117504;23;20018;-70
2024/01/21 05:59:58;;;;;;;5.80;3.67;;;2.00;99.90;;;;;;6116947;23;20021;-70
2024/01/21 06:02:23;;;;;;;5.82;3.80;;;2.00;99.90;;;;;;6114335;23;20022;-70
2024/01/21 06:04:50;;;;;;;6.38;4.05;;;2.10;99.90;;;;;;6114580;23;20025;-70
2024/01/21 06:07:16;;;;;;;6.43;4.07;;;2.10;99.90;;;;;;6115104;23;20030;-70
2024/01/21 06:09:42;;;;;;;8.98;4.10;;;2.10;99.90;;;;;;6114891;23;20021;-70
2024/01/21 06:12:08;;;;;;;6.68;4.20;;;2.10;99.90;;;;;;6115452;23;20458;-70
2024/01/21 06:14:33;;;;;;;6.78;4.10;;;2.10;99.90;;;;;;6113715;23;20024;-71
2024/01/21 06:16:59;;;;;;;5.93;3.88;;;2.10;99.90;;;;;;6116078;23;20064;-71
2024/01/21 06:19:25;;;;;;;5.03;3.72;;;2.30;99.90;;;;;;6114042;23;20021;-71
2024/01/21 06:21:50;;;;;;;6.40;4.10;;;2.40;99.90;;;;;;6114874;23;20033;-70
2024/01/21 06:24:17;;;;;;;7.05;4.13;;;2.40;99.90;;;;;;6113453;23;20017;-70
2024/01/21 06:26:44;;;;;;;7.32;4.70;;;2.40;99.90;;;;;;6114208;23;20045;-71
2024/01/21 06:29:10;;;;;;;6.20;4.18;;;2.40;99.90;;;;;;6115291;23;20025;-70
2024/01/21 06:31:36;;;;;;;7.57;4.43;;;2.40;99.90;;;;;;6113161;23;20033;-70
2024/01/21 06:34:02;;;;;;;7.50;5.05;;;2.40;99.90;;;;;;6111913;23;20056;-70
2024/01/21 06:36:27;;;;;;;9.80;3.92;;;2.50;99.90;;;;;;6115087;23;20029;-71
2024/01/21 06:38:53;;;;;;;7.95;4.13;;;2.50;99.90;;;;;;6114637;23;20033;-70
2024/01/21 06:41:19;;;;;;;7.13;4.45;;;2.50;99.90;;;;;;6114621;23;20092;-71
2024/01/21 06:43:44;;;;;;;8.27;4.07;;;2.50;99.90;;;;;;6114384;23;20046;-71
2024/01/21 06:46:10;;;;;;;7.45;4.22;;;2.60;99.90;;;;;;6113735;23;20054;-70
2024/01/21 06:48:36;;;;;;;7.68;5.10;;;2.60;99.90;;;;;;6114937;23;20104;-70
2024/01/21 06:51:09;;;;;;;10.00;4.63;;;2.60;99.90;;;;;;6112424;23;20886;-71
2024/01/21 06:53:35;;;;;;;9.10;4.57;;;2.60;99.90;;;;;;6113342;23;20026;-71
2024/01/21 06:56:06;;;;;;;8.57;5.57;;;2.50;99.90;;;;;;6112577;23;20018;-70
2024/01/21 06:58:32;;;;;;;8.75;5.40;;;2.60;99.90;;;;;;6114785;23;20032;-71
2024/01/21 07:00:58;;;;;;;10.30;5.30;;;2.50;99.90;;;;;;6111447;23;20080;-71
2024/01/21 07:03:23;;;;;;;8.02;5.00;;;2.50;99.90;;;;;;6112888;23;20465;-72
2024/01/21 07:05:49;;;;;;;7.85;5.00;;;2.50;99.90;;;;;;6114876;23;20085;-71
2024/01/21 07:08:15;;;;;;;6.55;4.10;;;2.50;99.90;;;;;;6114533;23;20018;-72
2024/01/21 07:10:41;;;;;;;6.00;3.75;;;2.50;99.90;;;;;;6114946;23;20014;-71
2024/01/21 07:13:06;;;;;;;8.35;4.60;;;2.50;99.90;;;;;;6110684;23;20095;-71
2024/01/21 07:15:32;;;;;;;11.15;5.18;;;2.60;99.90;;;;;;6113268;23;20197;-71
2024/01/21 07:17:57;;;;;;;6.80;4.28;;;2.50;99.90;;;;;;6113094;23;20018;-72
2024/01/21 07:20:23;;;;;;;7.78;5.30;;;2.50;99.90;;;;;;6113730;23;20387;-73
2024/01/21 07:22:49;;;;;;;8.98;5.30;;;2.60;99.90;;;;;;6113899;23;20053;-73
2024/01/21 07:25:14;;;;;;;8.73;4.85;;;2.50;99.90;;;;;;6114153;23;20024;-72
2024/01/21 07:27:40;;;;;;;9.40;5.57;;;2.50;99.90;;;;;;6113035;23;20022;-73
2024/01/21 07:30:07;;;;;;;7.80;4.60;;;2.40;99.90;;;;;;6113087;23;20026;-71
2024/01/21 07:32:32;;;;;;;10.05;6.13;;;2.40;99.90;;;;;;6112021;23;20030;-71
2024/01/21 07:34:58;;;;;;;6.35;4.82;;;2.40;99.90;;;;;;6111624;23;20032;-72
2024/01/21 07:37:23;;;;;;;9.98;5.60;;;2.40;99.90;;;;;;6111503;23;20072;-72
2024/01/21 07:39:49;;;;;;;7.78;5.28;;;2.40;99.90;;;;;;6114215;23;20022;-72
2024/01/21 07:42:15;;;;;;;7.78;5.15;;;2.30;99.90;;;;;;6111044;23;20028;-73
2024/01/21 07:44:40;;;;;;;8.93;5.40;;;2.30;99.90;;;;;;6114300;23;20025;-72
2024/01/21 07:47:06;;;;;;;9.15;5.47;;;2.30;99.90;;;;;;6113893;23;20029;-73
2024/01/21 07:49:31;;;;;;;9.75;5.78;;;2.30;99.90;;;;;;6110836;23;20235;-72
2024/01/21 07:51:57;;;;;;;9.00;5.60;;;2.30;99.90;;;;;;6112567;23;20024;-73
2024/01/21 07:54:23;;;;;;;9.35;5.95;;;2.30;99.90;;;;;;6111387;23;20025;-73
2024/01/21 07:56:48;;;;;;;9.20;5.38;;;2.30;99.90;;;;;;6112675;23;20022;-72
2024/01/21 07:59:14;;;;;;;8.85;5.97;;;2.30;99.90;;;;;;6112643;23;20132;-73
2024/01/21 08:01:39;;;;;;;8.70;5.80;;;2.30;99.90;;;;;;6108787;23;20028;-72
2024/01/21 08:04:05;;;;;;;9.25;6.00;;;2.30;99.90;;;;;;6085084;23;20021;-72
2024/01/21 08:06:30;;;;;;;8.05;5.28;;;2.30;99.90;;;;;;6112895;23;20049;-73
2024/01/21 08:08:56;;;;;;;8.55;5.30;;;2.30;99.90;;;;;;6111729;23;20083;-71
2024/01/21 08:11:22;;;;;;;7.68;5.38;;;2.30;99.90;;;;;;6110943;23;20030;-73
2024/01/21 08:13:47;;;;;;;10.20;5.68;;;2.40;99.90;;;;;;6110955;23;20080;-72
2024/01/21 08:16:13;;;;;;;9.88;5.30;;;2.40;99.90;;;;;;6110419;23;20025;-72
2024/01/21 08:18:39;;;;;;;8.10;4.97;;;2.40;99.90;;;;;;6112680;23;20052;-71
2024/01/21 08:21:04;;;;;;;8.98;5.53;;;2.40;99.90;;;;;;6111412;23;20366;-72
2024/01/21 08:23:30;;;;;;;7.15;5.05;;;2.50;99.90;;;;;;6113874;23;20050;-72
2024/01/21 08:25:55;;;;;;;9.88;5.65;;;2.50;99.90;;;;;;6113364;23;20092;-73
2024/01/21 08:28:21;;;;;;;9.23;5.70;;;2.50;99.90;;;;;;6112550;23;20485;-72
2024/01/21 08:30:47;;;;;;;7.80;4.78;;;2.50;99.90;;;;;;6113578;23;20025;-71
2024/01/21 08:33:12;;;;;;;9.07;5.93;;;2.60;99.90;;;;;;6111538;23;20028;-73
2024/01/21 08:35:40;;;;;;;8.20;5.65;;;2.60;99.90;;;;;;6110428;23;20021;-71
2024/01/21 08:38:06;;;;;;;8.93;5.25;;;2.60;99.90;;;;;;6087042;23;20052;-71
2024/01/21 08:40:32;;;;;;;9.68;5.75;;;2.60;99.90;;;;;;6111891;23;20049;-73
2024/01/21 08:42:57;;;;;;;8.40;5.07;;;2.70;99.90;;;;;;6110715;23;20164;-72
2024/01/21 08:45:23;;;;;;;6.32;4.60;;;2.60;99.90;;;;;;6113621;23;20025;-72
2024/01/21 08:47:48;;;;;;;10.18;5.45;;;2.70;99.90;;;;;;6112768;23;20028;-72
2024/01/21 08:50:14;;;;;;;8.10;5.38;;;2.70;99.90;;;;;;6111905;23;20014;-73
2024/01/21 08:52:39;;;;;;;8.80;5.93;;;2.60;99.90;;;;;;6111212;23;20017;-72
2024/01/21 08:55:06;;;;;;;8.15;5.45;;;2.60;99.90;;;;;;6118363;23;20022;-71
2024/01/21 08:57:31;;;;;;;10.18;6.10;;;2.60;99.90;;;;;;6092333;23;20018;-72
2024/01/21 08:59:57;;;;;;;7.78;5.20;;;2.70;99.90;;;;;;6117495;23;20379;-72
2024/01/21 09:02:22;;;;;;;8.52;5.88;;;2.70;99.90;;;;;;6115678;23;20616;-72
2024/01/21 09:04:48;;;;;;;8.23;5.68;;;2.70;99.90;;;;;;6116547;23;20025;-73
2024/01/21 09:07:13;;;;;;;9.45;5.35;;;2.80;99.90;;;;;;6119824;23;20018;-73
2024/01/21 09:09:39;;;;;;;8.50;5.32;;;2.80;99.90;;;;;;6115123;23;20358;-73
2024/01/21 09:12:07;;;;;;;10.40;6.07;;;2.90;99.90;;;;;;6117390;23;20467;-73
2024/01/21 09:14:34;;;;;;;10.45;6.45;;;2.90;99.90;;;;;;6115444;23;20088;-76
